Belchertown, MA

12:21 PM EST on February 27, 2015 (GMT -0500)
UMass Cold Spring Orchard | Change Station
CLOSE
Current Station
Personal Weather Station
Location: Belchertown, MA
Elevation: 630 ft
Nearby Weather Stations

Elev 630 ft 42.25 °N, 72.36 °W | Updated 2 seconds ago

Clear
Clear
22.8 °F
Feels Like 15 °F
N
6.0
Wind Variable Wind from WNW
Gusts 10.0 mph

Today
High -- | Low -- °F
--% Chance of Precip.
Yesterday
High -- | Low -- °F
Precip. -- in
6:28 AM 5:36 PM
Waxing Gibbous, 70% visible
Pressure 30.38 in
Visibility 10.0 miles
Clouds Clear
Windchill 15 °F
Dew Point 4 °F
Humidity 45%
Rainfall 0.00 in
Snow Depth Not available.
UV 5 out of 12
Pollen .40 out of 12
Air Quality Not available.
Flu Activity Not available.
METAR KCEF 271658Z AUTO 00000KT 10SM CLR M07/M17 A3035 RMK AO2 SLP288 T10691173

More Conditions Fewer Conditions

Pressure 30.38 in
Visibility 10.0 miles
Clouds Clear
Windchill 15 °F
Dew Point 4 °F
Humidity 45%
Rainfall 0.00 in
Snow Depth Not available.
UV 5 out of 12
Pollen .40 out of 12
Air Quality Not available.
Flu Activity Not available.
METAR KCEF 271658Z AUTO 00000KT 10SM CLR M07/M17 A3035 RMK AO2 SLP288 T10691173

More Conditions Fewer Conditions

10-Day Weather Forecast

Almanac

Astronomy

Feb. 27, 2015 Rise Set
Actual Time
Civil Twilight
Nautical Twilight
Astronomical Twilight
Moon
Length of Visible Light
Length of Day
Tomorrow will be .
, % of the Moon is Illuminated

Today's Extremes

State Highs State Lows

Community

WunderPhotos

Upload Photos

1,800,748 photos uploaded!

WunderBlogs® & News

Nearby

Air Quality

  Air Quality AQ Index Pollutant
Not available.

Snow Depth

Station Depth Elevation

Earthquake Activity

City Distance Mag. Time & Date
Minimum magnitude displayed is 2.5.

Coastal Water Temperatures

Place Temperature

Nearby Weather Stations